createdAt,value
2018-04-02T00:00:57.140Z,4.2
2018-04-02T00:02:04.356Z,4.2
2018-04-02T00:03:11.299Z,4.2
2018-04-02T00:04:17.993Z,4.2
2018-04-02T00:05:24.934Z,4.2
2018-04-02T00:06:31.880Z,4.2
2018-04-02T00:07:39.038Z,4.1
2018-04-02T00:08:45.980Z,4.1
2018-04-02T00:09:53.353Z,4.1
2018-04-02T00:11:00.022Z,4.1
2018-04-02T00:12:07.446Z,4
2018-04-02T00:13:14.378Z,4
2018-04-02T00:14:21.624Z,4
2018-04-02T00:15:28.286Z,3.9
2018-04-02T00:16:35.710Z,3.8
2018-04-02T00:17:42.934Z,3.8
2018-04-02T00:18:50.370Z,3.7
2018-04-02T00:19:57.314Z,3.7
2018-04-02T00:21:04.533Z,3.7
2018-04-02T00:22:11.739Z,3.6
2018-04-02T00:23:18.898Z,3.6
2018-04-02T00:24:26.101Z,3.6
2018-04-02T00:25:33.261Z,3.6
2018-04-02T00:26:40.475Z,3.5
2018-04-02T00:27:47.372Z,3.5
2018-04-02T00:28:54.576Z,3.5
2018-04-02T00:30:01.841Z,3.5
2018-04-02T00:31:08.769Z,3.4
2018-04-02T00:32:15.720Z,3.4
2018-04-02T00:33:22.943Z,3.4
2018-04-02T00:34:29.821Z,3.4
2018-04-02T00:35:37.036Z,3.4
2018-04-02T00:36:44.463Z,3.4
2018-04-02T00:37:51.664Z,3.3
2018-04-02T00:38:59.117Z,3.3
2018-04-02T00:40:06.323Z,3.3
2018-04-02T00:41:13.544Z,3.3
2018-04-02T00:42:20.767Z,3.3
2018-04-02T00:43:27.977Z,3.2
2018-04-02T00:44:35.202Z,3.2
2018-04-02T00:45:42.144Z,3.2
2018-04-02T00:46:49.369Z,3.2
2018-04-02T00:47:56.567Z,3.2
2018-04-02T00:49:03.768Z,3.2
2018-04-02T00:50:11.245Z,3.2
2018-04-02T00:51:18.444Z,3.2
2018-04-02T00:52:25.375Z,3.2
2018-04-02T00:53:32.597Z,3.2
2018-04-02T00:54:39.821Z,3.1
2018-04-02T00:55:47.015Z,3.1
2018-04-02T00:56:54.216Z,3.1
2018-04-02T00:58:01.428Z,3.1
2018-04-02T00:59:08.862Z,3.1
2018-04-02T01:00:15.808Z,3.1
2018-04-02T01:01:23.012Z,3.1
2018-04-02T01:02:29.667Z,3.1
2018-04-02T01:03:36.601Z,3.1
2018-04-02T01:04:43.256Z,3.1
2018-04-02T01:05:50.196Z,3.1
2018-04-02T01:06:57.406Z,3.1
2018-04-02T01:08:04.630Z,3.2
2018-04-02T01:09:11.849Z,3.1
2018-04-02T01:10:19.071Z,3.2
2018-04-02T01:11:26.013Z,3.2
2018-04-02T01:12:32.959Z,3.2
2018-04-02T01:13:39.882Z,3.2
2018-04-02T01:14:47.316Z,3.2
2018-04-02T01:15:54.257Z,3.2
2018-04-02T01:17:01.418Z,3.2
2018-04-02T01:18:08.621Z,3.2
2018-04-02T01:19:15.829Z,3.2
2018-04-02T01:20:23.051Z,3.2
2018-04-02T01:21:30.021Z,3.2
2018-04-02T01:22:37.238Z,3.2
2018-04-02T01:23:43.912Z,3.2
2018-04-02T01:24:51.127Z,3.2
2018-04-02T01:25:58.284Z,3.2
2018-04-02T01:27:05.494Z,3.2
2018-04-02T01:28:12.176Z,3.2
2018-04-02T01:29:19.983Z,3.2
2018-04-02T01:30:27.251Z,3.2
2018-04-02T01:31:49.094Z,3.2
2018-04-02T01:32:56.256Z,3.2
2018-04-02T01:34:03.463Z,3.3
2018-04-02T01:35:10.330Z,3.3
2018-04-02T01:36:17.547Z,3.3
2018-04-02T01:37:24.789Z,3.3
2018-04-02T01:38:31.463Z,3.3
2018-04-02T01:39:38.157Z,3.3
2018-04-02T01:40:45.102Z,3.3
2018-04-02T01:41:52.548Z,3.3
2018-04-02T01:42:59.466Z,3.3
2018-04-02T01:44:06.638Z,3.3
2018-04-02T01:45:13.840Z,3.4
2018-04-02T01:46:20.493Z,3.4
2018-04-02T01:47:27.147Z,3.4
2018-04-02T01:48:34.585Z,3.3
2018-04-02T01:49:41.810Z,3.3
2018-04-02T01:50:48.964Z,3.4
2018-04-02T01:51:55.890Z,3.3
2018-04-02T01:53:02.855Z,3.4
2018-04-02T01:54:10.110Z,3.4
2018-04-02T01:55:17.041Z,3.4
2018-04-02T01:56:23.973Z,3.4
2018-04-02T01:57:31.192Z,3.4
2018-04-02T01:58:38.132Z,3.4
2018-04-02T01:59:45.571Z,3.4
2018-04-02T02:00:52.495Z,3.4
2018-04-02T02:01:59.932Z,3.5
2018-04-02T02:03:07.138Z,3.5
2018-04-02T02:04:13.787Z,3.5
2018-04-02T02:05:21.012Z,3.5
2018-04-02T02:06:28.236Z,3.5
2018-04-02T02:07:35.476Z,3.5
2018-04-02T02:08:42.696Z,3.5
2018-04-02T02:09:49.628Z,3.6
2018-04-02T02:10:56.936Z,3.5
2018-04-02T02:12:04.143Z,3.6
2018-04-02T02:13:11.034Z,3.5
2018-04-02T02:14:18.018Z,3.5
2018-04-02T02:15:24.688Z,3.6
2018-04-02T02:16:31.059Z,3.6
2018-04-02T02:17:37.735Z,3.6
2018-04-02T02:18:44.656Z,3.5
2018-04-02T02:19:51.910Z,3.6
2018-04-02T02:20:59.116Z,3.6
2018-04-02T02:22:05.536Z,3.6
2018-04-02T02:23:12.735Z,3.6
2018-04-02T02:24:19.875Z,3.6
2018-04-02T02:25:27.086Z,3.6
2018-04-02T02:26:34.032Z,3.6
2018-04-02T02:27:40.980Z,3.6
2018-04-02T02:28:47.911Z,3.6
2018-04-02T02:29:55.121Z,3.6
2018-04-02T02:31:02.359Z,3.6
2018-04-02T02:32:09.618Z,3.6
2018-04-02T02:33:17.060Z,3.6
2018-04-02T02:34:24.268Z,3.6
2018-04-02T02:35:31.688Z,3.6
2018-04-02T02:36:38.910Z,3.6
2018-04-02T02:37:46.347Z,3.6
2018-04-02T02:38:52.737Z,3.6
2018-04-02T02:39:59.666Z,3.6
2018-04-02T02:41:06.868Z,3.6
2018-04-02T02:42:13.519Z,3.6
2018-04-02T02:43:20.438Z,3.6
2018-04-02T02:44:27.366Z,3.6
2018-04-02T02:45:34.581Z,3.6
2018-04-02T02:46:41.253Z,3.6
2018-04-02T02:47:48.444Z,3.6
2018-04-02T02:48:55.110Z,3.6
2018-04-02T02:50:02.743Z,3.6
2018-04-02T02:51:09.954Z,3.6
2018-04-02T02:52:17.168Z,3.6
2018-04-02T02:53:24.367Z,3.6
2018-04-02T02:54:31.603Z,3.5
2018-04-02T02:55:38.813Z,3.6
2018-04-02T02:56:46.022Z,3.5
2018-04-02T02:57:53.230Z,3.5
2018-04-02T02:59:00.512Z,3.5
2018-04-02T03:00:07.955Z,3.5
2018-04-02T03:01:15.148Z,3.5
2018-04-02T03:02:22.583Z,3.5
2018-04-02T03:03:29.785Z,3.5
2018-04-02T03:04:36.995Z,3.5
2018-04-02T03:05:44.214Z,3.5
2018-04-02T03:06:51.179Z,3.4
2018-04-02T03:07:58.382Z,3.4
2018-04-02T03:09:05.332Z,3.4
2018-04-02T03:10:12.257Z,3.4
2018-04-02T03:11:18.904Z,3.4
2018-04-02T03:12:26.106Z,3.3
2018-04-02T03:13:33.339Z,3.3
2018-04-02T03:14:40.541Z,3.3
2018-04-02T03:15:47.702Z,3.3
2018-04-02T03:16:54.355Z,3.2
2018-04-02T03:18:01.223Z,3.2
2018-04-02T03:19:08.149Z,3.2
2018-04-02T03:20:15.310Z,3.2
2018-04-02T03:21:22.234Z,3.2
2018-04-02T03:22:28.887Z,3.1
2018-04-02T03:23:35.807Z,3.1
2018-04-02T03:24:43.042Z,3.1
2018-04-02T03:25:49.972Z,3
2018-04-02T03:26:57.134Z,3
2018-04-02T03:28:03.785Z,2.9
2018-04-02T03:29:11.216Z,2.9
2018-04-02T03:30:18.144Z,2.9
2018-04-02T03:31:25.397Z,2.8
2018-04-02T03:32:32.611Z,2.8
2018-04-02T03:33:39.560Z,2.8
2018-04-02T03:34:46.221Z,2.7
2018-04-02T03:35:53.169Z,2.7
2018-04-02T03:37:00.385Z,2.7
2018-04-02T03:38:07.558Z,2.6
2018-04-02T03:39:14.796Z,2.6
2018-04-02T03:40:21.944Z,2.6
2018-04-02T03:41:28.867Z,2.6
2018-04-02T03:42:36.308Z,2.5
2018-04-02T03:43:43.519Z,2.5
2018-04-02T03:44:50.455Z,2.5
2018-04-02T03:45:57.105Z,2.4
2018-04-02T03:47:04.326Z,2.4
2018-04-02T03:48:11.543Z,2.4
2018-04-02T03:49:18.764Z,2.3
2018-04-02T03:50:25.988Z,2.3
2018-04-02T03:51:33.409Z,2.3
2018-04-02T03:52:40.608Z,2.2
2018-04-02T03:53:47.844Z,2.2
2018-04-02T03:54:55.049Z,2.2
2018-04-02T03:56:02.508Z,2.1
2018-04-02T03:57:09.726Z,2.1
2018-04-02T03:58:16.964Z,2.1
2018-04-02T03:59:24.173Z,2
2018-04-02T04:00:31.392Z,2
2018-04-02T04:01:38.591Z,2
2018-04-02T04:02:45.814Z,1.9
2018-04-02T04:03:53.035Z,1.9
2018-04-02T04:05:00.476Z,1.9
2018-04-02T04:06:07.416Z,1.8
2018-04-02T04:07:14.363Z,1.8
2018-04-02T04:08:21.572Z,1.8
2018-04-02T04:09:28.513Z,1.8
2018-04-02T04:10:35.719Z,1.7
2018-04-02T04:11:42.928Z,1.7
2018-04-02T04:12:50.132Z,1.7
2018-04-02T04:13:57.343Z,1.7
2018-04-02T04:15:04.292Z,1.7
2018-04-02T04:16:11.497Z,1.6
2018-04-02T04:17:18.444Z,1.6
2018-04-02T04:18:25.612Z,1.6
2018-04-02T04:19:32.256Z,1.6
2018-04-02T04:20:39.411Z,1.5
2018-04-02T04:21:46.615Z,1.5
2018-04-02T04:22:53.553Z,1.5
2018-04-02T04:24:00.775Z,1.5
2018-04-02T04:25:08.025Z,1.4
2018-04-02T04:26:15.226Z,1.4
2018-04-02T04:27:22.170Z,1.4
2018-04-02T04:28:29.124Z,1.4
2018-04-02T04:29:36.058Z,1.4
2018-04-02T04:30:43.279Z,1.3
2018-04-02T04:31:50.251Z,1.3
2018-04-02T04:32:57.445Z,1.3
2018-04-02T04:34:04.373Z,1.3
2018-04-02T04:35:11.342Z,1.3
2018-04-02T04:36:18.765Z,1.3
2018-04-02T04:37:25.688Z,1.2
2018-04-02T04:38:32.345Z,1.2
2018-04-02T04:39:39.286Z,1.2
2018-04-02T04:40:45.965Z,1.2
2018-04-02T04:41:52.904Z,1.1
2018-04-02T04:43:00.112Z,1.2
2018-04-02T04:44:07.056Z,1.2
2018-04-02T04:45:14.281Z,1.2
2018-04-02T04:46:21.508Z,1.1
2018-04-02T04:47:28.456Z,1.1
2018-04-02T04:48:35.658Z,1.1
2018-04-02T04:49:42.602Z,1.1
2018-04-02T04:50:49.536Z,1.1
2018-04-02T04:51:56.953Z,1.1
2018-04-02T04:53:04.157Z,1.1
2018-04-02T04:54:10.805Z,1.1
2018-04-02T04:55:17.999Z,1.1
2018-04-02T04:56:25.464Z,1.2
2018-04-02T04:57:32.392Z,1.2
2018-04-02T04:58:39.321Z,1.2
2018-04-02T04:59:45.973Z,1.2
2018-04-02T05:00:53.142Z,1.2
2018-04-02T05:02:00.371Z,1.2
2018-04-02T05:03:07.534Z,1.3
2018-04-02T05:04:14.741Z,1.3
2018-04-02T05:05:21.664Z,1.3
2018-04-02T05:06:28.888Z,1.2
2018-04-02T05:07:36.090Z,1.2
2018-04-02T05:08:42.758Z,1.3
2018-04-02T05:09:49.975Z,1.3
2018-04-02T05:10:57.249Z,1.3
2018-04-02T05:12:04.675Z,1.3
2018-04-02T05:13:11.597Z,1.4
2018-04-02T05:14:18.760Z,1.4
2018-04-02T05:15:25.413Z,1.4
2018-04-02T05:16:32.355Z,1.4
2018-04-02T05:17:39.037Z,1.4
2018-04-02T05:18:45.704Z,1.4
2018-04-02T05:19:52.925Z,1.5
2018-04-02T05:21:00.152Z,1.5
2018-04-02T05:22:07.099Z,1.4
2018-04-02T05:23:14.260Z,1.4
2018-04-02T05:24:20.905Z,1.4
2018-04-02T05:25:42.972Z,1.3
2018-04-02T05:26:49.895Z,1.3
2018-04-02T05:27:57.113Z,1.4
2018-04-02T05:29:04.033Z,1.4
2018-04-02T05:30:11.256Z,1.4
2018-04-02T05:31:18.457Z,1.4
2018-04-02T05:32:25.672Z,1.4
2018-04-02T05:33:32.891Z,1.4
2018-04-02T05:34:39.541Z,1.4
2018-04-02T05:35:46.754Z,1.4
2018-04-02T05:36:53.996Z,1.4
2018-04-02T05:38:01.187Z,1.4
2018-04-02T05:39:08.621Z,1.4
2018-04-02T05:40:15.828Z,1.4
2018-04-02T05:41:22.777Z,1.5
2018-04-02T05:42:29.996Z,1.5
2018-04-02T05:43:36.667Z,1.5
2018-04-02T05:44:43.895Z,1.5
2018-04-02T05:45:51.058Z,1.5
2018-04-02T05:46:58.265Z,1.5
2018-04-02T05:48:05.144Z,1.5
2018-04-02T05:49:12.347Z,1.6
2018-04-02T05:50:19.569Z,1.6
2018-04-02T05:51:26.795Z,1.6
2018-04-02T05:52:33.179Z,1.6
2018-04-02T05:53:40.130Z,1.7
2018-04-02T05:54:46.790Z,1.8
2018-04-02T05:55:53.720Z,1.8
2018-04-02T05:57:00.612Z,1.9
2018-04-02T05:58:07.262Z,2
2018-04-02T05:59:14.401Z,2.1
2018-04-02T06:00:21.344Z,2.1
2018-04-02T06:01:28.270Z,2.1
2018-04-02T06:02:34.937Z,2.2
2018-04-02T06:03:41.602Z,2.2
2018-04-02T06:04:48.904Z,2.3
2018-04-02T06:05:56.125Z,2.4
2018-04-02T06:07:03.332Z,2.5
2018-04-02T06:08:10.762Z,2.6
2018-04-02T06:09:17.140Z,2.6
2018-04-02T06:10:24.363Z,2.6
2018-04-02T06:11:31.282Z,2.7
2018-04-02T06:12:38.509Z,2.7
2018-04-02T06:13:45.440Z,2.7
2018-04-02T06:14:52.378Z,2.8
2018-04-02T06:15:59.318Z,2.8
2018-04-02T06:17:06.525Z,2.8
2018-04-02T06:18:13.178Z,2.8
2018-04-02T06:19:20.127Z,2.8
2018-04-02T06:20:27.338Z,2.9
2018-04-02T06:21:34.495Z,2.9
2018-04-02T06:22:41.706Z,2.9
2018-04-02T06:23:48.643Z,2.9
2018-04-02T06:24:55.902Z,3
2018-04-02T06:26:03.119Z,3
2018-04-02T06:27:10.053Z,3
2018-04-02T06:28:16.981Z,3
2018-04-02T06:29:23.912Z,3.1
2018-04-02T06:30:31.081Z,3.2
2018-04-02T06:31:38.066Z,3.2
2018-04-02T06:32:45.291Z,3.2
2018-04-02T06:33:52.497Z,3.3
2018-04-02T06:34:59.660Z,3.3
2018-04-02T06:36:06.892Z,3.4
2018-04-02T06:37:13.824Z,3.5
2018-04-02T06:38:20.489Z,3.5
2018-04-02T06:39:27.429Z,3.5
2018-04-02T06:40:34.416Z,3.5
2018-04-02T06:41:41.631Z,3.6
2018-04-02T06:42:48.591Z,3.7
2018-04-02T06:43:55.519Z,3.7
2018-04-02T06:45:02.725Z,3.8
2018-04-02T06:46:09.900Z,3.8
2018-04-02T06:47:16.551Z,3.9
2018-04-02T06:48:23.442Z,3.9
2018-04-02T06:49:31.286Z,3.9
2018-04-02T06:50:38.502Z,4
2018-04-02T06:51:45.721Z,4
2018-04-02T06:52:52.705Z,4
2018-04-02T06:53:59.646Z,4
2018-04-02T06:55:06.608Z,4
2018-04-02T06:56:13.807Z,4.1
2018-04-02T06:57:20.969Z,4.2
2018-04-02T06:58:27.917Z,4.3
2018-04-02T06:59:35.357Z,4.3
2018-04-02T07:00:42.282Z,4.3
2018-04-02T07:01:49.508Z,4.5
2018-04-02T07:02:56.812Z,4.5
2018-04-02T07:04:04.052Z,4.5
2018-04-02T07:05:11.259Z,4.5
2018-04-02T07:06:18.504Z,4.4
2018-04-02T07:07:25.725Z,4.4
2018-04-02T07:08:32.871Z,4.4
2018-04-02T07:09:39.799Z,4.4
2018-04-02T07:10:47.006Z,4.4
2018-04-02T07:11:53.651Z,4.5
2018-04-02T07:13:01.095Z,4.5
2018-04-02T07:14:08.301Z,4.5
2018-04-02T07:15:15.735Z,4.6
2018-04-02T07:16:22.940Z,4.6
2018-04-02T07:17:30.378Z,4.7
2018-04-02T07:18:37.312Z,4.8
2018-04-02T07:19:44.521Z,4.8
2018-04-02T07:20:51.447Z,4.8
2018-04-02T07:21:58.381Z,4.9
2018-04-02T07:23:05.651Z,4.9
2018-04-02T07:24:12.955Z,5
2018-04-02T07:25:19.339Z,4.9
2018-04-02T07:26:26.545Z,5
2018-04-02T07:27:33.473Z,5
2018-04-02T07:28:40.716Z,5
2018-04-02T07:29:47.665Z,5
2018-04-02T07:30:54.640Z,5.1
2018-04-02T07:32:01.847Z,5.2
2018-04-02T07:33:08.778Z,5.3
2018-04-02T07:34:16.005Z,5.4
2018-04-02T07:35:23.208Z,5.5
2018-04-02T07:36:30.138Z,5.5
2018-04-02T07:37:37.021Z,5.4
2018-04-02T07:38:44.237Z,5.4
2018-04-02T07:39:51.167Z,5.4
2018-04-02T07:40:58.371Z,5.4
2018-04-02T07:42:05.571Z,5.4
2018-04-02T07:43:12.780Z,5.4
2018-04-02T07:44:20.015Z,5.5
2018-04-02T07:45:27.006Z,5.6
2018-04-02T07:46:33.920Z,5.7
2018-04-02T07:47:40.848Z,5.7
2018-04-02T07:48:48.064Z,5.5
2018-04-02T07:49:54.443Z,5.4
2018-04-02T07:51:01.105Z,5.5
2018-04-02T07:52:07.761Z,5.7
2018-04-02T07:53:14.971Z,5.7
2018-04-02T07:54:22.183Z,5.9
2018-04-02T07:55:29.393Z,6
2018-04-02T07:56:36.059Z,6.2
2018-04-02T07:57:43.258Z,6.3
2018-04-02T07:58:50.461Z,6.4
2018-04-02T07:59:57.663Z,6.6
2018-04-02T08:01:04.881Z,6.8
2018-04-02T08:02:12.083Z,7
2018-04-02T08:03:19.286Z,7.1
2018-04-02T08:04:26.487Z,7.3
2018-04-02T08:05:33.414Z,7.2
2018-04-02T08:06:40.354Z,7.2
2018-04-02T08:07:47.296Z,7.4
2018-04-02T08:08:54.502Z,7.5
2018-04-02T08:10:01.438Z,7.6
2018-04-02T08:11:08.639Z,7.8
2018-04-02T08:12:15.564Z,7.8
2018-04-02T08:13:22.498Z,7.9
2018-04-02T08:14:29.434Z,8
2018-04-02T08:15:36.083Z,7.9
2018-04-02T08:16:43.305Z,8
2018-04-02T08:17:50.330Z,8.1
2018-04-02T08:18:57.606Z,7.9
2018-04-02T08:20:04.823Z,7.8
2018-04-02T08:21:11.753Z,7.9
2018-04-02T08:22:18.954Z,7.9
2018-04-02T08:23:25.885Z,7.9
2018-04-02T08:24:32.259Z,8.1
2018-04-02T08:25:38.912Z,8.1
2018-04-02T08:26:45.850Z,8.1
2018-04-02T08:27:52.490Z,8.3
2018-04-02T08:28:59.698Z,8.4
2018-04-02T08:30:06.634Z,8.2
2018-04-02T08:31:13.559Z,8.1
2018-04-02T08:32:20.766Z,8
2018-04-02T08:33:27.708Z,8.1
2018-04-02T08:34:34.639Z,8.2
2018-04-02T22:00:06.359Z,9.4
2018-04-02T22:01:13.561Z,9.4
2018-04-02T22:02:20.506Z,9.4
2018-04-02T22:03:27.720Z,9.4
2018-04-02T22:04:34.644Z,9.3
2018-04-02T22:05:41.582Z,9.3
2018-04-02T22:06:48.509Z,9.3
2018-04-02T22:07:55.718Z,9.3
2018-04-02T22:09:02.406Z,9.3
2018-04-02T22:10:09.384Z,9.3
2018-04-02T22:11:16.590Z,9.2
2018-04-02T22:12:23.801Z,9.2
2018-04-02T22:13:30.797Z,9.2
2018-04-02T22:14:37.689Z,9.2
2018-04-02T22:15:44.912Z,9.2
2018-04-02T22:16:52.120Z,9.2
2018-04-02T22:17:59.331Z,9.2
2018-04-02T22:19:06.010Z,9.2
2018-04-02T22:20:13.224Z,9.2
2018-04-02T22:21:20.179Z,9.3
2018-04-02T22:22:27.392Z,9.2
2018-04-02T22:23:34.053Z,9.3
2018-04-02T22:24:40.999Z,9.3
2018-04-02T22:25:48.221Z,9.4
2018-04-02T22:26:55.166Z,9.5
2018-04-02T22:28:02.102Z,9.6
2018-04-02T22:29:09.305Z,9.6
2018-04-02T22:30:16.508Z,9.7
2018-04-02T22:31:23.433Z,9.7
2018-04-02T22:32:30.086Z,9.7
2018-04-02T22:33:36.467Z,9.7
2018-04-02T22:34:43.680Z,9.7
2018-04-02T22:35:50.621Z,9.6
2018-04-02T22:36:57.280Z,9.6
2018-04-02T22:38:04.218Z,9.6
2018-04-02T22:39:11.436Z,9.6
2018-04-02T22:40:18.363Z,9.6
2018-04-02T22:41:25.585Z,9.6
2018-04-02T22:42:32.790Z,9.6
2018-04-02T22:43:39.722Z,9.5
2018-04-02T22:44:46.930Z,9.5
2018-04-02T22:45:54.373Z,9.4
2018-04-02T22:47:01.589Z,9.4
2018-04-02T22:48:08.240Z,9.3
2018-04-02T22:49:15.164Z,9.3
2018-04-02T22:50:22.375Z,9.3
2018-04-02T22:51:29.053Z,9.3
2018-04-02T22:52:36.264Z,9.2
2018-04-02T22:53:43.486Z,9.2
2018-04-02T22:54:50.699Z,9.2
2018-04-02T22:55:57.364Z,9.2
2018-04-02T22:57:04.572Z,9.2
2018-04-02T22:58:11.499Z,9.1
2018-04-02T22:59:18.704Z,9
2018-04-02T23:00:25.917Z,9
2018-04-02T23:01:32.849Z,9
2018-04-02T23:02:39.783Z,9
2018-04-02T23:03:46.997Z,9
2018-04-02T23:04:54.228Z,9
2018-04-02T23:06:01.439Z,9
2018-04-02T23:07:08.664Z,9
2018-04-02T23:08:15.871Z,9
2018-04-02T23:09:23.076Z,9
2018-04-02T23:10:30.305Z,9
2018-04-02T23:11:37.487Z,9
2018-04-02T23:12:44.690Z,9
2018-04-02T23:13:51.910Z,9.1
2018-04-02T23:14:58.559Z,9
2018-04-02T23:16:05.229Z,9
2018-04-02T23:17:12.164Z,9
2018-04-02T23:18:19.095Z,9
2018-04-02T23:19:26.299Z,9
2018-04-02T23:20:33.508Z,9
2018-04-02T23:21:40.720Z,9
2018-04-02T23:22:46.831Z,9
2018-04-02T23:23:54.038Z,9
2018-04-02T23:25:00.417Z,9
2018-04-02T23:26:07.627Z,9
2018-04-02T23:27:14.848Z,9
2018-04-02T23:28:22.059Z,9
2018-04-02T23:29:29.275Z,8.9
2018-04-02T23:30:36.488Z,8.9
2018-04-02T23:31:43.710Z,8.9
2018-04-02T23:32:50.925Z,8.9
2018-04-02T23:33:58.148Z,8.8
2018-04-02T23:35:05.361Z,8.8
2018-04-02T23:36:12.281Z,8.8
2018-04-02T23:37:19.486Z,8.8
2018-04-02T23:38:26.699Z,8.8
2018-04-02T23:39:33.899Z,8.8
2018-04-02T23:40:41.103Z,8.8
2018-04-02T23:41:48.322Z,8.8
2018-04-02T23:42:55.281Z,8.8
2018-04-02T23:44:02.222Z,8.7
2018-04-02T23:45:09.159Z,8.7
2018-04-02T23:46:16.088Z,8.7
2018-04-02T23:47:23.072Z,8.8
2018-04-02T23:48:30.011Z,8.8
2018-04-02T23:49:36.936Z,8.7
2018-04-02T23:50:43.864Z,8.6
2018-04-02T23:51:50.791Z,8.6
2018-04-02T23:52:57.471Z,8.6
2018-04-02T23:54:04.698Z,8.6
2018-04-02T23:55:11.899Z,8.5
2018-04-02T23:56:18.828Z,8.5
2018-04-02T23:57:26.038Z,8.5
2018-04-02T23:58:33.241Z,8.5
2018-04-02T23:59:40.378Z,8.5
